Dirección General De Aeronáutica Civil

Dirección Meteorológica de Chile - Servicios Climáticos

Informe General de Control de Calidad de la Estación

Listado de niveles de control de calidad para algunos parámetros
Estación Loncoche comisaría (390003)
Fecha de Revisión de los datos :

Elementos

Registros Niveles de Control Total
Nivel 0 Nivel 1 Nivel 2 Nivel 3 Errores Porcentaje
01 Temperatura del Aire Seco 10.290 0 . 39 0.38 % 0 . 0 . 39 0.38 %
02 Temperatura de Rocío 9.174 0 . 0 . 0 . 0 . 0 0.00 %
03 Humedad Relativa del Aire 6.386 0 . 0 . 0 . 0 . 0 0.00 %
04 Temperatura Máxima PM 733 0 . 0 . 54 7.37 % 0 . 54 7.37 %
05 Temperatura Mínima AM 732 0 . 0 . 78 10.66 % 0 . 78 10.66 %
06 Viento a 10 m. de Altura 10.293 0 . 6 0.06 % 2 0.02 % 0 . 8 0.08 %
07 Agua Caida, Acumulada 6 Horas 1.465 0 . 0 . 0 . 0 . 0 0.00 %
08 Presión Atm. a Nivel Medio del Mar (QFF) 10.268 8 0.08 % 0 . 0 . 0 . 8 0.08 %
09 Tiempo Pasado Sinóptico 2.956 0 . 0 . 0 . 0 . 0 0.00 %
10 Tiempo Presente Sinóptico 10.293 0 . 1 0.01 % 0 . 0 . 1 0.01 %

Totales

62.590 . 0.0128 % . 0.0735 % . 0.2141 % . 0.0000 % 188 0.3004 %

Detalle de Errores Encontrados

Nivel Fecha del Dato Descripción Información Error Fecha Ingreso
0 1953-02-01 22:00:00 qff (Presión a nivel del Mar) debe ser numérico, entre 300 y 1100 104.2 2014-02-18 13:28:00
0 1953-04-22 22:00:00 qff (Presión a nivel del Mar) debe ser numérico, entre 300 y 1100 108.7 2014-02-26 15:41:00
0 1953-06-06 20:00:00 qff (Presión a nivel del Mar) debe ser numérico, entre 300 y 1100 105.8 2014-03-03 15:03:00
0 1953-09-07 15:00:00 qff (Presión a nivel del Mar) debe ser numérico, entre 300 y 1100 105.5 2014-04-11 12:44:00
0 1953-09-19 19:00:00 qff (Presión a nivel del Mar) debe ser numérico, entre 300 y 1100 118.5 2014-04-11 18:18:00
0 1953-12-18 12:00:00 qff (Presión a nivel del Mar) debe ser numérico, entre 300 y 1100 106.2 2014-04-17 13:22:00
0 1953-12-18 21:00:00 qff (Presión a nivel del Mar) debe ser numérico, entre 300 y 1100 102.6 2014-04-17 13:22:00
0 1953-12-30 19:00:00 qff (Presión a nivel del Mar) debe ser numérico, entre 300 y 1100 102.8 2014-04-17 18:13:00
Errores del Nivel 8
Nivel Fecha del Dato Descripción Información Error Fecha Ingreso
1 1952-05-13 14:00:00 Ts debe ser mayor o igual a Td Ts=13.1 - Td=13.4 2014-08-14 13:32:00
1 1952-06-06 14:00:00 Ts debe ser mayor o igual a Td Ts=7.5 - Td=7.5 2014-08-14 19:42:00
1 1952-06-19 11:00:00 Ts debe ser mayor o igual a Td Ts=-4.0 - Td=-3.5 2014-08-18 14:33:00
1 1952-06-19 13:00:00 Ts debe ser mayor o igual a Td Ts=-4.0 - Td=-3.5 2014-08-18 14:33:00
1 1952-10-18 11:00:00 HR (Humedad Relativa) es igual a 100% y Ts <> Td 10.5 - 9.9 2014-08-22 18:33:00
1 1952-12-19 10:00:00 Ts debe ser mayor o igual a Td Ts=9.0 - Td=9.1 2014-08-27 14:52:00
1 1953-01-30 13:00:00 Ts debe ser mayor o igual a Td Ts=3.4 - Td=9.0 2014-02-18 12:48:00
1 1953-02-14 13:00:00 Ts debe ser mayor o igual a Td Ts=14.0 - Td=15.0 2014-02-19 13:41:00
1 1953-02-14 13:00:00 HR (Humedad Relativa) es igual a 100% y Ts <> Td 14.0 - 15.0 2014-02-19 13:41:00
1 1953-03-06 10:00:00 HR (Humedad Relativa) es igual a 100% y Ts <> Td 7.5 - 7.0 2014-02-20 17:51:00
1 1953-03-25 10:00:00 HR (Humedad Relativa) es igual a 100% y Ts <> Td 5.5 - 5.0 2014-02-24 19:46:00
1 1953-03-25 11:00:00 HR (Humedad Relativa) es igual a 100% y Ts <> Td 5.5 - 5.0 2014-02-24 19:46:00
1 1953-04-02 12:00:00 HR (Humedad Relativa) es igual a 100% y Ts <> Td 14.5 - 14.2 2014-02-24 22:21:00
1 1953-04-05 18:00:00 HR (Humedad Relativa) es igual a 100% y Ts <> Td 10.5 - 9.6 2014-02-25 15:03:00
1 1953-04-15 10:00:00 HR (Humedad Relativa) es igual a 100% y Ts <> Td 5.2 - -1.5 2014-02-26 13:10:00
1 1953-04-22 12:00:00 HR (Humedad Relativa) es igual a 100% y Ts <> Td 2.5 - 2.1 2014-02-26 15:41:00
1 1953-06-01 10:00:00 HR (Humedad Relativa) es igual a 100% y Ts <> Td 9.2 - 8.8 2014-02-28 19:12:00
1 1953-06-27 10:00:00 HR (Humedad Relativa) es igual a 100% y Ts <> Td 1.0 - 0.1 2014-03-10 18:14:00
1 1953-06-27 11:00:00 HR (Humedad Relativa) es igual a 100% y Ts <> Td 1.0 - 0.1 2014-03-10 18:14:00
1 1953-06-27 12:00:00 HR (Humedad Relativa) es igual a 100% y Ts <> Td 1.0 - 0.1 2014-03-10 18:14:00
1 1953-06-27 13:00:00 HR (Humedad Relativa) es igual a 100% y Ts <> Td 1.0 - 0.1 2014-03-10 18:15:00
1 1953-06-28 17:00:00 Ts debe ser mayor o igual a Td Ts=-1.0 - Td=3.1 2014-03-10 18:22:00
1 1953-07-04 10:00:00 Ts debe ser mayor o igual a Td Ts=-1.5 - Td=-0.2 2014-03-12 12:24:00
1 1953-07-04 10:00:00 HR (Humedad Relativa) es igual a 100% y Ts <> Td -1.5 - -0.2 2014-03-12 12:24:00
1 1953-07-04 11:00:00 Ts debe ser mayor o igual a Td Ts=-1.5 - Td=-0.2 2014-03-12 12:24:00
1 1953-07-04 11:00:00 HR (Humedad Relativa) es igual a 100% y Ts <> Td -1.5 - -0.2 2014-03-12 12:24:00
1 1953-07-04 12:00:00 Ts debe ser mayor o igual a Td Ts=-1.5 - Td=-0.2 2014-03-12 12:24:00
1 1953-07-04 12:00:00 HR (Humedad Relativa) es igual a 100% y Ts <> Td -1.5 - -0.2 2014-03-11 20:23:00
1 1953-07-04 13:00:00 Ts debe ser mayor o igual a Td Ts=-1.5 - Td=-0.2 2014-03-12 12:24:00
1 1953-07-04 13:00:00 HR (Humedad Relativa) es igual a 100% y Ts <> Td -1.5 - -0.2 2014-03-12 12:24:00
1 1953-07-04 14:00:00 HR (Humedad Relativa) es igual a 100% y Ts <> Td 2.0 - 0.8 2014-03-12 12:24:00
1 1953-07-07 15:00:00 HR (Humedad Relativa) es igual a 100% y Ts <> Td 7.5 - 6.5 2014-03-12 14:04:00
1 1953-07-12 15:00:00 HR (Humedad Relativa) es igual a 100% y Ts <> Td 7.0 - 6.6 2014-03-12 17:41:00
1 1953-07-20 18:00:00 Ts debe ser mayor o igual a Td Ts=-1.2 - Td=1.2 2014-03-12 19:52:00
1 1953-07-30 14:00:00 Ts debe ser mayor o igual a Td Ts=1.0 - Td=1.4 2014-03-14 13:31:00
1 1953-09-06 11:00:00 HR (Humedad Relativa) es igual a 100% y Ts <> Td 6.5 - 5.9 2014-04-11 12:38:00
1 1953-09-13 19:00:00 Ts debe ser mayor o igual a Td Ts=6.0 - Td=7.6 2014-04-11 15:56:00
1 1953-09-30 21:00:00 Ts debe ser mayor o igual a Td Ts=3.1 - Td=6.4 2014-04-11 21:16:00
1 1953-10-02 11:00:00 Ts debe ser mayor o igual a Td Ts=-0.8 - Td=-0.1 2014-04-11 21:33:00
1 1953-04-04 13:00:00 Viento calma fue mal ingresado. dd = 180 - ff = 0 2014-02-25 14:55:00
1 1953-04-04 14:00:00 Viento calma fue mal ingresado. dd = 180 - ff = 0 2014-02-25 14:55:00
1 1953-04-06 14:00:00 Viento calma fue mal ingresado. dd = 180 - ff = 0 2014-02-25 15:10:00
1 1953-05-12 18:00:00 Viento calma fue mal ingresado. dd = 360 - ff = 0 2014-02-27 18:06:00
1 1953-06-21 10:00:00 Viento calma fue mal ingresado. dd = 360 - ff = 0 2014-03-10 17:23:00
1 1953-06-21 11:00:00 Viento calma fue mal ingresado. dd = 360 - ff = 0 2014-03-10 17:23:00
1 1953-10-05 13:00:00 (ts - td > 5.0) y ((ww >= 40 y ww <= 49)) 41 2014-04-14 13:21:00
Errores del Nivel 46
Nivel Fecha del Dato Descripción Información Error Fecha Ingreso
2 1952-09-01 18:00:00 Variación horaria de Intensidad del viento fuera de rango (1 hora Antes) 50 - 11 2014-08-20 18:47:00
2 1952-09-01 19:00:00 Variación horaria de Intensidad del viento fuera de rango (1 hora Antes) 10 - 50 2014-08-20 18:47:00
2 1952-02-07 00:00:00 Temperatura 28.4 del 06-02-1952 23:00, Mayor que la Máxima 28.0 07-02-1952 00:00 28.4 -- 28.0 2014-08-27 19:50:00
2 1952-02-16 00:00:00 Temperatura 27.1 del 15-02-1952 21:00, Mayor que la Máxima 27.0 16-02-1952 00:00 27.1 -- 27.0 2014-08-27 19:52:00
2 1952-02-18 00:00:00 Temperatura 21.2 del 17-02-1952 20:00, Mayor que la Máxima 21.0 18-02-1952 00:00 21.2 -- 21.0 2014-08-27 19:52:00
2 1952-02-19 00:00:00 Temperatura 20.1 del 18-02-1952 22:00, Mayor que la Máxima 20.0 19-02-1952 00:00 20.1 -- 20.0 2014-08-27 19:52:00
2 1952-02-20 00:00:00 Temperatura 28.6 del 19-02-1952 17:00, Mayor que la Máxima 22.0 20-02-1952 00:00 28.6 -- 22.0 2014-08-27 19:52:00
2 1952-04-02 00:00:00 Temperatura 20.8 del 01-04-1952 18:00, Mayor que la Máxima 20.6 02-04-1952 00:00 20.8 -- 20.6 2014-08-27 20:49:00
2 1952-04-11 00:00:00 Temperatura 19.4 del 10-04-1952 19:00, Mayor que la Máxima 19.2 11-04-1952 00:00 19.4 -- 19.2 2014-08-27 20:50:00
2 1952-04-21 00:00:00 Temperatura 16.5 del 20-04-1952 18:00, Mayor que la Máxima 15.4 21-04-1952 00:00 16.5 -- 15.4 2014-08-27 20:51:00
2 1952-04-26 00:00:00 Temperatura 17.1 del 25-04-1952 18:00, Mayor que la Máxima 16.6 26-04-1952 00:00 17.1 -- 16.6 2014-08-27 20:51:00
2 1952-06-04 00:00:00 Temperatura 10.0 del 03-06-1952 17:00, Mayor que la Máxima 9.8 04-06-1952 00:00 10.0 -- 9.8 2014-08-28 13:27:00
2 1952-06-06 00:00:00 Temperatura 9.1 del 05-06-1952 19:00, Mayor que la Máxima 9.0 06-06-1952 00:00 9.1 -- 9.0 2014-08-28 13:28:00
2 1952-06-12 00:00:00 Temperatura 7.6 del 11-06-1952 18:00, Mayor que la Máxima 7.5 12-06-1952 00:00 7.6 -- 7.5 2014-08-28 13:28:00
2 1952-06-20 00:00:00 Temperatura 14.4 del 19-06-1952 19:00, Mayor que la Máxima 14.0 20-06-1952 00:00 14.4 -- 14.0 2014-08-28 13:29:00
2 1952-06-22 00:00:00 Temperatura 11.6 del 21-06-1952 21:00, Mayor que la Máxima 11.5 22-06-1952 00:00 11.6 -- 11.5 2014-08-28 13:29:00
2 1952-06-26 00:00:00 Temperatura 9.9 del 25-06-1952 18:00, Mayor que la Máxima 9.4 26-06-1952 00:00 9.9 -- 9.4 2014-08-28 13:30:00
2 1952-06-30 00:00:00 Temperatura 13.3 del 29-06-1952 20:00, Mayor que la Máxima 13.3 30-06-1952 00:00 13.3 -- 13.3 2014-08-28 13:30:00
2 1952-07-04 00:00:00 Temperatura 13.4 del 03-07-1952 18:00, Mayor que la Máxima 13.0 04-07-1952 00:00 13.4 -- 13.0 2014-08-28 13:41:00
2 1952-07-30 00:00:00 Temperatura 9.1 del 29-07-1952 18:00, Mayor que la Máxima 8.8 30-07-1952 00:00 9.1 -- 8.8 2014-08-28 13:46:00
2 1952-08-01 00:00:00 Temperatura 12.0 del 31-07-1952 18:00, Mayor que la Máxima 11.7 01-08-1952 00:00 12.0 -- 11.7 2014-08-28 13:46:00
2 1952-08-03 00:00:00 Temperatura 9.5 del 02-08-1952 18:00, Mayor que la Máxima 9.3 03-08-1952 00:00 9.5 -- 9.3 2014-08-28 14:11:00
2 1952-08-09 00:00:00 Temperatura 12.1 del 08-08-1952 20:00, Mayor que la Máxima 11.5 09-08-1952 00:00 12.1 -- 11.5 2014-08-28 14:11:00
2 1952-08-14 00:00:00 Temperatura 8.4 del 13-08-1952 19:00, Mayor que la Máxima 8.1 14-08-1952 00:00 8.4 -- 8.1 2014-08-28 14:11:00
2 1952-08-15 00:00:00 Temperatura 10.9 del 14-08-1952 20:00, Mayor que la Máxima 10.6 15-08-1952 00:00 10.9 -- 10.6 2014-08-28 14:11:00
2 1952-08-17 00:00:00 Temperatura 6.5 del 16-08-1952 18:00, Mayor que la Máxima 6.0 17-08-1952 00:00 6.5 -- 6.0 2014-08-28 14:11:00
2 1952-09-10 00:00:00 Temperatura 19.0 del 09-09-1952 18:00, Mayor que la Máxima 18.5 10-09-1952 00:00 19.0 -- 18.5 2014-08-28 14:18:00
2 1952-09-12 00:00:00 Temperatura 13.0 del 11-09-1952 18:00, Mayor que la Máxima 12.6 12-09-1952 00:00 13.0 -- 12.6 2014-08-28 14:18:00
2 1952-10-30 00:00:00 Temperatura 22.5 del 29-10-1952 21:00, Mayor que la Máxima 22.0 30-10-1952 00:00 22.5 -- 22.0 2014-08-28 14:25:00
2 1952-11-16 00:00:00 Temperatura 17.8 del 15-11-1952 19:00, Mayor que la Máxima 17.5 16-11-1952 00:00 17.8 -- 17.5 2014-08-28 14:32:00
2 1952-11-25 00:00:00 Temperatura 25.1 del 24-11-1952 19:00, Mayor que la Máxima 21.4 25-11-1952 00:00 25.1 -- 21.4 2014-08-28 14:32:00
2 1952-11-28 00:00:00 Temperatura 22.1 del 27-11-1952 20:00, Mayor que la Máxima 21.6 28-11-1952 00:00 22.1 -- 21.6 2014-08-28 14:32:00
2 1952-12-01 00:00:00 Temperatura 28.1 del 30-11-1952 20:00, Mayor que la Máxima 28.0 01-12-1952 00:00 28.1 -- 28.0 2014-08-28 14:32:00
2 1952-12-26 00:00:00 Temperatura 20.0 del 25-12-1952 18:00, Mayor que la Máxima 19.5 26-12-1952 00:00 20.0 -- 19.5 2014-08-28 14:38:00
2 1953-01-08 00:00:00 Temperatura 20.2 del 07-01-1953 19:00, Mayor que la Máxima 20.0 08-01-1953 00:00 20.2 -- 20.0 2014-03-11 12:53:00
2 1953-01-23 00:00:00 Temperatura 23.3 del 22-01-1953 19:00, Mayor que la Máxima 23.2 23-01-1953 00:00 23.3 -- 23.2 2014-03-11 12:39:00
2 1953-02-17 00:00:00 Temperatura 26.8 del 16-02-1953 19:00, Mayor que la Máxima 21.5 17-02-1953 00:00 26.8 -- 21.5 2014-03-11 14:08:00
2 1953-02-28 00:00:00 Temperatura 26.2 del 27-02-1953 19:00, Mayor que la Máxima 25.7 28-02-1953 00:00 26.2 -- 25.7 2014-03-11 14:11:00
2 1953-03-18 00:00:00 Temperatura 18.0 del 17-03-1953 16:00, Mayor que la Máxima 17.3 18-03-1953 00:00 18.0 -- 17.3 2014-03-11 15:35:00
2 1953-03-30 00:00:00 Temperatura 23.1 del 29-03-1953 19:00, Mayor que la Máxima 23.0 30-03-1953 00:00 23.1 -- 23.0 2014-03-11 16:24:00
2 1953-04-11 00:00:00 Temperatura 14.4 del 10-04-1953 19:00, Mayor que la Máxima 13.9 11-04-1953 00:00 14.4 -- 13.9 2014-03-11 17:22:00
2 1953-04-14 00:00:00 Temperatura 14.4 del 13-04-1953 18:00, Mayor que la Máxima 13.6 14-04-1953 00:00 14.4 -- 13.6 2014-03-11 17:23:00
2 1953-04-20 00:00:00 Temperatura 16.5 del 19-04-1953 21:00, Mayor que la Máxima 16.4 20-04-1953 00:00 16.5 -- 16.4 2014-03-11 17:25:00
2 1953-05-04 00:00:00 Temperatura 18.0 del 03-05-1953 18:00, Mayor que la Máxima 17.5 04-05-1953 00:00 18.0 -- 17.5 2014-03-11 18:08:00
2 1953-05-31 00:00:00 Temperatura 15.5 del 30-05-1953 19:00, Mayor que la Máxima 15.2 31-05-1953 00:00 15.5 -- 15.2 2014-03-11 18:20:00
2 1953-07-27 00:00:00 Temperatura 10.0 del 26-07-1953 14:00, Mayor que la Máxima 9.5 27-07-1953 00:00 10.0 -- 9.5 2014-03-13 13:00:00
2 1953-08-18 00:00:00 Temperatura 8.0 del 17-08-1953 22:00, Mayor que la Máxima 0.8 18-08-1953 00:00 8.0 -- 0.8 2014-03-13 13:32:00
2 1953-08-31 00:00:00 Temperatura 14.0 del 30-08-1953 20:00, Mayor que la Máxima 13.7 31-08-1953 00:00 14.0 -- 13.7 2014-03-13 13:33:00
2 1953-09-05 00:00:00 Temperatura 11.3 del 04-09-1953 21:00, Mayor que la Máxima 11.2 05-09-1953 00:00 11.3 -- 11.2 2014-03-13 14:07:00
2 1953-09-14 00:00:00 Temperatura 11.4 del 13-09-1953 16:00, Mayor que la Máxima 10.5 14-09-1953 00:00 11.4 -- 10.5 2014-03-13 14:07:00
2 1953-10-22 00:00:00 Temperatura 16.0 del 21-10-1953 20:00, Mayor que la Máxima 15.8 22-10-1953 00:00 16.0 -- 15.8 2014-03-13 15:00:00
2 1953-10-30 00:00:00 Temperatura 15.1 del 29-10-1953 17:00, Mayor que la Máxima 14.9 30-10-1953 00:00 15.1 -- 14.9 2014-03-13 15:01:00
2 1953-11-06 00:00:00 Temperatura 21.0 del 05-11-1953 17:00, Mayor que la Máxima 20.7 06-11-1953 00:00 21.0 -- 20.7 2014-03-13 15:56:00
2 1953-11-10 00:00:00 Temperatura 15.4 del 09-11-1953 16:00, Mayor que la Máxima 14.9 10-11-1953 00:00 15.4 -- 14.9 2014-03-13 15:56:00
2 1953-11-22 00:00:00 Temperatura 25.6 del 21-11-1953 19:00, Mayor que la Máxima 25.5 22-11-1953 00:00 25.6 -- 25.5 2014-03-13 15:56:00
2 1953-11-30 00:00:00 Temperatura 18.2 del 29-11-1953 17:00, Mayor que la Máxima 17.6 30-11-1953 00:00 18.2 -- 17.6 2014-03-13 15:57:00
2 1952-01-05 12:00:00 Temperatura 9.8 del 05-01-1952 10:00, Menor que la Mínima 10.0 05-01-1952 12:00 9.8 -- 10.0 2014-07-29 19:22:00
2 1952-01-29 12:00:00 Temperatura 10.0 del 29-01-1952 10:00, Menor que la Mínima 11.0 29-01-1952 12:00 10.0 -- 11.0 2014-07-31 16:59:00
2 1952-02-07 12:00:00 Temperatura 8.5 del 07-02-1952 10:00, Menor que la Mínima 9.0 07-02-1952 12:00 8.5 -- 9.0 2014-07-31 21:00:00
2 1952-02-08 12:00:00 Temperatura 5.0 del 08-02-1952 10:00, Menor que la Mínima 8.0 08-02-1952 12:00 5.0 -- 8.0 2014-07-31 21:09:00
2 1952-02-15 12:00:00 Temperatura 9.0 del 15-02-1952 10:00, Menor que la Mínima 16.0 15-02-1952 12:00 9.0 -- 16.0 2014-08-01 16:02:00
2 1952-05-13 12:00:00 Temperatura 12.7 del 13-05-1952 10:00, Menor que la Mínima 12.9 13-05-1952 12:00 12.7 -- 12.9 2014-08-14 13:32:00
2 1952-06-19 12:00:00 Temperatura -4.0 del 19-06-1952 11:00, Menor que la Mínima -3.5 19-06-1952 12:00 -4.0 -- -3.5 2014-08-18 14:33:00
2 1952-06-25 12:00:00 Temperatura 8.5 del 25-06-1952 10:00, Menor que la Mínima 9.0 25-06-1952 12:00 8.5 -- 9.0 2014-08-18 15:48:00
2 1952-10-06 12:00:00 Temperatura 7.1 del 06-10-1952 10:00, Menor que la Mínima 8.0 06-10-1952 12:00 7.1 -- 8.0 2014-08-21 20:34:00
2 1952-10-11 12:00:00 Temperatura 4.7 del 11-10-1952 10:00, Menor que la Mínima 5.0 11-10-1952 12:00 4.7 -- 5.0 2014-08-22 13:56:00
2 1952-10-24 12:00:00 Temperatura 5.0 del 24-10-1952 10:00, Menor que la Mínima 5.2 24-10-1952 12:00 5.0 -- 5.2 2014-08-22 19:43:00
2 1952-11-11 12:00:00 Temperatura 4.8 del 11-11-1952 10:00, Menor que la Mínima 5.3 11-11-1952 12:00 4.8 -- 5.3 2014-08-25 19:13:00
2 1952-11-12 12:00:00 Temperatura 11.0 del 12-11-1952 10:00, Menor que la Mínima 11.1 12-11-1952 12:00 11.0 -- 11.1 2014-08-25 19:25:00
2 1952-11-15 12:00:00 Temperatura 9.6 del 15-11-1952 10:00, Menor que la Mínima 9.8 15-11-1952 12:00 9.6 -- 9.8 2014-08-25 20:54:00
2 1952-11-18 12:00:00 Temperatura 3.8 del 18-11-1952 10:00, Menor que la Mínima 4.2 18-11-1952 12:00 3.8 -- 4.2 2014-08-25 21:19:00
2 1952-11-23 12:00:00 Temperatura 9.5 del 23-11-1952 10:00, Menor que la Mínima 9.8 23-11-1952 12:00 9.5 -- 9.8 2014-08-26 14:13:00
2 1952-11-24 12:00:00 Temperatura 10.8 del 24-11-1952 10:00, Menor que la Mínima 11.0 24-11-1952 12:00 10.8 -- 11.0 2014-08-26 14:43:00
2 1952-11-25 12:00:00 Temperatura 12.5 del 25-11-1952 10:00, Menor que la Mínima 13.0 25-11-1952 12:00 12.5 -- 13.0 2014-08-26 15:09:00
2 1952-11-30 12:00:00 Temperatura 10.5 del 30-11-1952 10:00, Menor que la Mínima 11.0 30-11-1952 12:00 10.5 -- 11.0 2014-08-26 18:40:00
2 1952-12-02 12:00:00 Temperatura 11.0 del 02-12-1952 10:00, Menor que la Mínima 11.2 02-12-1952 12:00 11.0 -- 11.2 2014-08-26 18:59:00
2 1952-12-03 12:00:00 Temperatura 11.5 del 03-12-1952 10:00, Menor que la Mínima 11.9 03-12-1952 12:00 11.5 -- 11.9 2014-08-26 19:06:00
2 1952-12-04 12:00:00 Temperatura 11.5 del 04-12-1952 10:00, Menor que la Mínima 11.9 04-12-1952 12:00 11.5 -- 11.9 2014-08-26 19:13:00
2 1952-12-05 12:00:00 Temperatura 8.5 del 05-12-1952 10:00, Menor que la Mínima 9.2 05-12-1952 12:00 8.5 -- 9.2 2014-08-26 19:29:00
2 1952-12-06 12:00:00 Temperatura 12.9 del 06-12-1952 10:00, Menor que la Mínima 13.0 06-12-1952 12:00 12.9 -- 13.0 2014-08-26 20:19:00
2 1952-12-07 12:00:00 Temperatura 10.5 del 07-12-1952 10:00, Menor que la Mínima 10.9 07-12-1952 12:00 10.5 -- 10.9 2014-08-26 20:26:00
2 1952-12-09 12:00:00 Temperatura 7.5 del 09-12-1952 10:00, Menor que la Mínima 8.0 09-12-1952 12:00 7.5 -- 8.0 2014-08-26 20:41:00
2 1952-12-10 12:00:00 Temperatura 12.1 del 10-12-1952 10:00, Menor que la Mínima 12.8 10-12-1952 12:00 12.1 -- 12.8 2014-08-26 21:15:00
2 1952-12-11 12:00:00 Temperatura 8.9 del 11-12-1952 10:00, Menor que la Mínima 9.0 11-12-1952 12:00 8.9 -- 9.0 2014-08-26 21:24:00
2 1952-12-24 12:00:00 Temperatura 7.4 del 24-12-1952 10:00, Menor que la Mínima 7.8 24-12-1952 12:00 7.4 -- 7.8 2014-08-27 16:39:00
2 1952-12-28 12:00:00 Temperatura 8.5 del 28-12-1952 10:00, Menor que la Mínima 9.2 28-12-1952 12:00 8.5 -- 9.2 2014-08-27 18:52:00
2 1953-01-02 12:00:00 Temperatura 7.0 del 02-01-1953 10:00, Menor que la Mínima 7.4 02-01-1953 12:00 7.0 -- 7.4 2014-02-14 13:48:00
2 1953-01-08 12:00:00 Temperatura 12.5 del 08-01-1953 12:00, Menor que la Mínima 13.0 08-01-1953 12:00 12.5 -- 13.0 2014-02-14 17:10:00
2 1953-01-12 12:00:00 Temperatura 9.6 del 12-01-1953 10:00, Menor que la Mínima 10.0 12-01-1953 12:00 9.6 -- 10.0 2014-02-17 13:13:00
2 1953-01-14 12:00:00 Temperatura 9.0 del 14-01-1953 10:00, Menor que la Mínima 9.1 14-01-1953 12:00 9.0 -- 9.1 2014-02-17 14:24:00
2 1953-02-20 12:00:00 Temperatura 11.5 del 20-02-1953 10:00, Menor que la Mínima 11.9 20-02-1953 12:00 11.5 -- 11.9 2014-02-19 19:40:00
2 1953-02-23 12:00:00 Temperatura 10.1 del 23-02-1953 10:00, Menor que la Mínima 11.0 23-02-1953 12:00 10.1 -- 11.0 2014-02-19 20:15:00
2 1953-02-25 12:00:00 Temperatura 12.5 del 25-02-1953 10:00, Menor que la Mínima 13.0 25-02-1953 12:00 12.5 -- 13.0 2014-02-20 13:27:00
2 1953-02-27 12:00:00 Temperatura 8.5 del 27-02-1953 11:00, Menor que la Mínima 9.3 27-02-1953 12:00 8.5 -- 9.3 2014-02-20 13:51:00
2 1953-03-01 12:00:00 Temperatura 9.0 del 01-03-1953 10:00, Menor que la Mínima 9.4 01-03-1953 12:00 9.0 -- 9.4 2014-02-20 15:31:00
2 1953-03-03 12:00:00 Temperatura 13.6 del 03-03-1953 10:00, Menor que la Mínima 14.0 03-03-1953 12:00 13.6 -- 14.0 2014-02-20 16:15:00
2 1953-03-04 12:00:00 Temperatura 7.5 del 04-03-1953 10:00, Menor que la Mínima 7.6 04-03-1953 12:00 7.5 -- 7.6 2014-02-20 17:33:00
2 1953-03-06 12:00:00 Temperatura 7.5 del 06-03-1953 10:00, Menor que la Mínima 8.4 06-03-1953 12:00 7.5 -- 8.4 2014-02-20 17:51:00
2 1953-03-07 12:00:00 Temperatura 10.5 del 07-03-1953 10:00, Menor que la Mínima 11.1 07-03-1953 12:00 10.5 -- 11.1 2014-02-20 17:58:00
2 1953-03-09 12:00:00 Temperatura 8.6 del 09-03-1953 10:00, Menor que la Mínima 9.6 09-03-1953 12:00 8.6 -- 9.6 2014-02-20 18:34:00
2 1953-03-14 12:00:00 Temperatura 11.5 del 14-03-1953 11:00, Menor que la Mínima 12.0 14-03-1953 12:00 11.5 -- 12.0 2014-02-21 14:50:00
2 1953-03-16 12:00:00 Temperatura 11.0 del 16-03-1953 10:00, Menor que la Mínima 11.3 16-03-1953 12:00 11.0 -- 11.3 2014-02-24 15:14:00
2 1953-03-17 12:00:00 Temperatura 12.0 del 17-03-1953 10:00, Menor que la Mínima 12.1 17-03-1953 12:00 12.0 -- 12.1 2014-02-24 15:38:00
2 1953-04-02 12:00:00 Temperatura 14.5 del 02-04-1953 08:00, Menor que la Mínima 14.8 02-04-1953 12:00 14.5 -- 14.8 2014-02-24 22:21:00
2 1953-04-12 12:00:00 Temperatura 2.6 del 12-04-1953 10:00, Menor que la Mínima 3.0 12-04-1953 12:00 2.6 -- 3.0 2014-02-25 19:34:00
2 1953-05-04 12:00:00 Temperatura 12.5 del 04-05-1953 10:00, Menor que la Mínima 12.6 04-05-1953 12:00 12.5 -- 12.6 2014-02-26 20:50:00
2 1953-05-28 12:00:00 Temperatura 4.0 del 28-05-1953 10:00, Menor que la Mínima 4.2 28-05-1953 12:00 4.0 -- 4.2 2014-02-28 18:03:00
2 1953-06-09 12:00:00 Temperatura 10.0 del 09-06-1953 10:00, Menor que la Mínima 10.2 09-06-1953 12:00 10.0 -- 10.2 2014-03-03 17:19:00
2 1953-06-11 12:00:00 Temperatura 8.0 del 11-06-1953 10:00, Menor que la Mínima 8.1 11-06-1953 12:00 8.0 -- 8.1 2014-03-03 18:10:00
2 1953-06-15 12:00:00 Temperatura 9.0 del 15-06-1953 11:00, Menor que la Mínima 9.1 15-06-1953 12:00 9.0 -- 9.1 2014-03-03 20:23:00
2 1953-06-16 12:00:00 Temperatura 4.9 del 16-06-1953 10:00, Menor que la Mínima 5.0 16-06-1953 12:00 4.9 -- 5.0 2014-03-03 20:32:00
2 1953-06-17 12:00:00 Temperatura 0.7 del 17-06-1953 10:00, Menor que la Mínima 1.0 17-06-1953 12:00 0.7 -- 1.0 2014-03-03 20:58:00
2 1953-06-19 12:00:00 Temperatura 6.4 del 19-06-1953 10:00, Menor que la Mínima 7.0 19-06-1953 12:00 6.4 -- 7.0 2014-03-10 14:34:00
2 1953-06-30 12:00:00 Temperatura 8.0 del 30-06-1953 10:00, Menor que la Mínima 8.2 30-06-1953 12:00 8.0 -- 8.2 2014-03-10 19:22:00
2 1953-07-03 12:00:00 Temperatura -1.6 del 03-07-1953 10:00, Menor que la Mínima 1.6 03-07-1953 12:00 -1.6 -- 1.6 2014-03-11 20:19:00
2 1953-07-14 12:00:00 Temperatura 1.0 del 14-07-1953 10:00, Menor que la Mínima 1.2 14-07-1953 12:00 1.0 -- 1.2 2014-03-12 17:55:00
2 1953-07-21 12:00:00 Temperatura -5.0 del 21-07-1953 12:00, Menor que la Mínima 5.5 21-07-1953 12:00 -5.0 -- 5.5 2014-03-12 19:59:00
2 1953-07-29 12:00:00 Temperatura -2.0 del 29-07-1953 10:00, Menor que la Mínima 2.6 29-07-1953 12:00 -2.0 -- 2.6 2014-03-13 20:31:00
2 1953-08-09 12:00:00 Temperatura 8.7 del 09-08-1953 10:00, Menor que la Mínima 9.0 09-08-1953 12:00 8.7 -- 9.0 2014-03-14 18:01:00
2 1953-08-19 12:00:00 Temperatura 7.5 del 19-08-1953 10:00, Menor que la Mínima 8.0 19-08-1953 12:00 7.5 -- 8.0 2014-04-09 15:28:00
2 1953-08-21 12:00:00 Temperatura 4.5 del 21-08-1953 12:00, Menor que la Mínima 5.1 21-08-1953 12:00 4.5 -- 5.1 2014-04-09 18:20:00
2 1953-08-28 12:00:00 Temperatura -2.1 del 28-08-1953 11:00, Menor que la Mínima -2.0 28-08-1953 12:00 -2.1 -- -2.0 2014-04-10 14:31:00
2 1953-09-04 12:00:00 Temperatura 8.5 del 04-09-1953 12:00, Menor que la Mínima 8.7 04-09-1953 12:00 8.5 -- 8.7 2014-04-10 19:26:00
2 1953-09-15 12:00:00 Temperatura 3.0 del 15-09-1953 11:00, Menor que la Mínima 3.2 15-09-1953 12:00 3.0 -- 3.2 2014-04-11 17:31:00
2 1953-10-02 12:00:00 Temperatura -0.8 del 02-10-1953 11:00, Menor que la Mínima 0.7 02-10-1953 12:00 -0.8 -- 0.7 2014-04-11 21:33:00
2 1953-10-13 12:00:00 Temperatura 7.9 del 13-10-1953 11:00, Menor que la Mínima 8.0 13-10-1953 12:00 7.9 -- 8.0 2014-04-14 15:27:00
2 1953-10-14 12:00:00 Temperatura 5.7 del 14-10-1953 11:00, Menor que la Mínima 5.9 14-10-1953 12:00 5.7 -- 5.9 2014-04-14 15:55:00
2 1953-10-18 12:00:00 Temperatura 5.5 del 18-10-1953 10:00, Menor que la Mínima 5.8 18-10-1953 12:00 5.5 -- 5.8 2014-04-14 18:14:00
2 1953-11-15 12:00:00 Temperatura 11.5 del 15-11-1953 12:00, Menor que la Mínima 12.0 15-11-1953 12:00 11.5 -- 12.0 2014-04-15 20:14:00
2 1953-11-23 12:00:00 Temperatura 8.9 del 23-11-1953 10:00, Menor que la Mínima 9.0 23-11-1953 12:00 8.9 -- 9.0 2014-04-16 13:50:00
2 1953-11-25 12:00:00 Temperatura 6.9 del 25-11-1953 10:00, Menor que la Mínima 7.0 25-11-1953 12:00 6.9 -- 7.0 2014-04-16 14:00:00
2 1953-12-15 12:00:00 Temperatura 3.7 del 15-12-1953 10:00, Menor que la Mínima 4.3 15-12-1953 12:00 3.7 -- 4.3 2014-04-17 12:46:00
2 1953-12-16 12:00:00 Temperatura 13.0 del 16-12-1953 10:00, Menor que la Mínima 13.1 16-12-1953 12:00 13.0 -- 13.1 2014-04-17 13:13:00
2 1953-12-26 12:00:00 Temperatura 11.9 del 26-12-1953 10:00, Menor que la Mínima 12.0 26-12-1953 12:00 11.9 -- 12.0 2014-04-17 15:31:00
Errores del Nivel 134
Informe generado el 05-03-2024 11:05
Requerimiento: RE6001